Time;durP1;ratioP1;P1;durP2;ratioP2;P2;SDS_P1;SDS_P2;PMS_P1;PMS_P2;Temp;Humidity;BMP_temperature;BMP_pressure;BME280_temperature;BME280_humidity;BME280_pressure;Samples;Min_cycle;Max_cycle;Signal;HPM_P1;HPM_P2
2022/02/26 00:01:13;;;;;;;46.78;17.48;;;;;;;2.58;48.15;94035.50;5064537;28;20142;-76
2022/02/26 00:03:39;;;;;;;42.83;15.05;;;;;;;2.58;48.02;94035.50;5064611;28;20029;-77
2022/02/26 00:06:04;;;;;;;41.80;14.88;;;;;;;2.55;47.77;94033.41;5064698;28;20093;-77
2022/02/26 00:08:30;;;;;;;49.85;17.48;;;;;;;2.57;47.79;94030.53;5064600;28;20029;-77
2022/02/26 00:10:55;;;;;;;50.80;18.17;;;;;;;2.55;47.76;94025.53;5064433;28;20025;-75
2022/02/26 00:13:21;;;;;;;44.95;15.50;;;;;;;2.58;47.20;94032.88;5064389;28;20080;-75
2022/02/26 00:15:46;;;;;;;43.70;15.85;;;;;;;2.64;47.05;94022.38;5064244;28;20082;-76
2022/02/26 00:18:12;;;;;;;37.53;14.82;;;;;;;2.60;46.34;94038.69;5064313;28;20024;-75
2022/02/26 00:20:38;;;;;;;26.73;10.27;;;;;;;2.65;45.85;94039.78;5064219;28;20031;-75
2022/02/26 00:23:03;;;;;;;24.08;10.05;;;;;;;2.63;45.75;94047.91;5064049;28;20212;-75
2022/02/26 00:25:29;;;;;;;20.90;8.80;;;;;;;2.56;46.58;94050.00;5064248;28;20100;-76
2022/02/26 00:27:55;;;;;;;25.38;10.70;;;;;;;2.51;46.75;94052.63;5064292;28;20139;-75
2022/02/26 00:30:20;;;;;;;33.20;12.05;;;;;;;2.45;47.12;94059.69;5064139;28;20071;-75
2022/02/26 00:32:46;;;;;;;35.80;13.20;;;;;;;2.34;47.24;94060.69;5063978;28;20024;-74
2022/02/26 00:35:11;;;;;;;26.40;12.13;;;;;;;2.30;47.59;94055.16;5063960;28;20028;-75
2022/02/26 00:37:37;;;;;;;29.35;12.35;;;;;;;2.33;47.47;94053.84;5063800;28;20307;-75
2022/02/26 00:40:03;;;;;;;37.08;11.77;;;;;;;2.31;47.85;94048.84;5063782;28;20020;-75
2022/02/26 00:42:29;;;;;;;31.75;12.00;;;;;;;2.37;47.81;94053.06;5064271;28;20027;-75
2022/02/26 00:44:54;;;;;;;27.65;12.50;;;;;;;2.39;48.42;94043.09;5063944;28;20040;-75
2022/02/26 00:47:19;;;;;;;36.08;11.85;;;;;;;2.46;48.37;94047.31;5063697;28;20056;-77
2022/02/26 00:49:48;;;;;;;32.03;12.38;;;;;;;2.47;48.59;94033.13;5063489;28;20021;-77
2022/02/26 00:52:15;;;;;;;55.42;15.70;;;;;;;2.47;48.99;94031.28;5063517;28;20044;-77
2022/02/26 00:54:41;;;;;;;54.42;18.45;;;;;;;2.52;48.91;94035.75;5063611;28;20029;-77
2022/02/26 00:57:06;;;;;;;47.22;18.60;;;;;;;2.56;49.20;94027.09;5063624;28;20051;-77
2022/02/26 00:59:32;;;;;;;48.17;17.38;;;;;;;2.57;49.13;94017.38;5063596;28;20050;-77
2022/02/26 01:01:57;;;;;;;55.78;18.25;;;;;;;2.56;49.48;94016.56;5063622;28;20043;-77
2022/02/26 01:04:23;;;;;;;46.25;16.23;;;;;;;2.51;49.71;94013.94;5063341;28;20031;-77
2022/02/26 01:06:49;;;;;;;39.72;15.45;;;;;;;2.52;49.36;94018.13;5063397;28;20028;-77
2022/02/26 01:09:14;;;;;;;39.03;15.93;;;;;;;2.54;49.29;94023.13;5063565;28;20086;-77
2022/02/26 01:11:40;;;;;;;39.60;17.42;;;;;;;2.55;49.09;94020.25;5063047;28;20148;-77
2022/02/26 01:14:05;;;;;;;39.90;14.25;;;;;;;2.60;48.83;94028.16;5063269;28;20033;-76
2022/02/26 01:16:31;;;;;;;39.72;15.48;;;;;;;2.58;49.38;94032.88;5063253;28;20088;-76
2022/02/26 01:18:56;;;;;;;30.80;14.80;;;;;;;2.52;49.26;94031.28;5063270;28;20058;-76
2022/02/26 01:21:23;;;;;;;41.92;14.30;;;;;;;2.46;49.13;94034.16;5062701;28;20274;-76
2022/02/26 01:23:49;;;;;;;33.38;13.88;;;;;;;2.39;48.80;94035.19;5062962;28;20028;-78
2022/02/26 01:26:19;;;;;;;49.13;14.07;;;;;;;2.39;49.14;94037.03;5063271;28;20211;-78
2022/02/26 01:28:45;;;;;;;38.80;14.77;;;;;;;2.40;49.27;94043.88;5063252;28;20028;-78
2022/02/26 01:31:11;;;;;;;35.47;15.18;;;;;;;2.45;49.40;94048.38;5063313;28;20088;-78
2022/02/26 01:33:37;;;;;;;37.42;15.50;;;;;;;2.43;49.59;94043.38;5062706;28;20028;-76
2022/02/26 01:36:03;;;;;;;44.17;15.35;;;;;;;2.44;49.62;94046.78;5062809;28;20037;-76
2022/02/26 01:38:29;;;;;;;42.97;14.25;;;;;;;2.39;50.05;94042.31;5063208;28;20032;-76
2022/02/26 01:40:54;;;;;;;39.10;15.45;;;;;;;2.38;50.63;94040.69;5062803;28;20045;-77
2022/02/26 01:43:20;;;;;;;33.97;14.45;;;;;;;2.36;50.82;94043.63;5062747;28;20083;-76
2022/02/26 01:45:45;;;;;;;37.38;15.65;;;;;;;2.36;50.85;94027.03;5062687;28;20025;-76
2022/02/26 01:48:11;;;;;;;42.72;16.45;;;;;;;2.33;51.04;94033.59;5062751;28;20342;-76
2022/02/26 01:50:36;;;;;;;41.92;15.15;;;;;;;2.32;51.22;94029.41;5062431;28;20036;-76
2022/02/26 01:53:04;;;;;;;50.15;15.40;;;;;;;2.21;51.57;94038.28;5062618;28;20231;-76
2022/02/26 01:55:29;;;;;;;56.70;19.63;;;;;;;2.23;51.40;94038.81;5062806;28;20024;-76
2022/02/26 01:57:55;;;;;;;44.45;18.90;;;;;;;2.23;50.87;94030.91;5062578;28;20232;-77
2022/02/26 02:00:21;;;;;;;49.28;19.50;;;;;;;2.23;50.75;94028.28;5062500;28;20359;-77
2022/02/26 02:02:47;;;;;;;48.90;18.42;;;;;;;2.24;50.86;94034.34;5062665;28;20028;-77
2022/02/26 02:05:12;;;;;;;44.25;17.90;;;;;;;2.20;51.09;94045.38;5062520;28;20044;-77
2022/02/26 02:07:38;;;;;;;50.95;17.05;;;;;;;2.18;51.73;94034.31;5062531;28;20315;-77
2022/02/26 02:10:05;;;;;;;41.20;17.60;;;;;;;2.19;51.90;94051.66;5062568;28;20025;-77
2022/02/26 02:12:31;;;;;;;59.10;18.98;;;;;;;2.21;51.81;94054.84;5062614;28;20049;-76
2022/02/26 02:14:57;;;;;;;41.58;18.23;;;;;;;2.21;52.00;94060.09;5062637;28;20028;-76
2022/02/26 02:17:23;;;;;;;51.85;17.27;;;;;;;2.19;52.08;94064.03;5062489;28;20020;-76
2022/02/26 02:19:49;;;;;;;44.42;17.00;;;;;;;2.12;51.83;94059.00;5062217;28;20067;-76
2022/02/26 02:22:19;;;;;;;43.80;16.35;;;;;;;2.04;52.11;94056.88;5062482;28;20315;-79
2022/02/26 02:24:46;;;;;;;42.78;16.27;;;;;;;1.99;52.18;94048.94;5062584;28;20021;-80
2022/02/26 02:27:14;;;;;;;42.22;16.38;;;;;;;1.99;52.16;94057.63;5062482;28;20021;-79
2022/02/26 02:29:40;;;;;;;43.30;16.40;;;;;;;1.95;51.94;94061.78;5062584;28;20021;-79
2022/02/26 02:32:07;;;;;;;44.35;15.55;;;;;;;1.92;51.75;94053.63;5062357;28;20323;-79
2022/02/26 02:34:33;;;;;;;44.83;16.92;;;;;;;1.92;52.09;94064.16;5065528;28;20380;-79
2022/02/26 02:36:59;;;;;;;37.20;15.48;;;;;;;1.88;52.04;94068.34;5065882;28;20024;-79
2022/02/26 02:39:24;;;;;;;49.22;16.95;;;;;;;1.80;52.73;94059.88;5066427;28;20227;-79
2022/02/26 02:41:50;;;;;;;45.25;18.05;;;;;;;1.74;52.88;94058.25;5066373;28;20032;-79
2022/02/26 02:44:15;;;;;;;47.30;18.35;;;;;;;1.74;53.31;94065.34;5066604;28;20024;-79
2022/02/26 02:46:42;;;;;;;38.90;16.80;;;;;;;1.66;53.31;94061.34;5066373;28;20029;-79
2022/02/26 02:49:07;;;;;;;38.40;15.52;;;;;;;1.65;53.47;94070.28;5066221;28;20215;-79
2022/02/26 02:51:33;;;;;;;43.08;18.10;;;;;;;1.66;53.90;94066.59;5065984;28;20032;-76
2022/02/26 02:53:58;;;;;;;44.17;16.52;;;;;;;1.65;53.77;94074.72;5066246;28;20025;-76
2022/02/26 02:56:24;;;;;;;42.58;16.90;;;;;;;1.59;54.40;94066.03;5064872;28;20035;-76
2022/02/26 02:58:49;;;;;;;37.60;15.90;;;;;;;1.62;54.69;94064.75;5066005;28;20268;-76
2022/02/26 03:01:15;;;;;;;37.40;15.13;;;;;;;1.64;54.94;94063.44;5065891;28;20024;-77
2022/02/26 03:03:40;;;;;;;43.33;16.95;;;;;;;1.67;54.74;94070.81;5065957;28;20029;-77
2022/02/26 03:06:06;;;;;;;37.95;15.65;;;;;;;1.66;55.15;94077.09;5065681;28;20123;-77
2022/02/26 03:08:32;;;;;;;40.45;15.75;;;;;;;1.64;54.84;94073.94;5065914;28;20033;-77
2022/02/26 03:10:58;;;;;;;43.38;17.38;;;;;;;1.57;54.77;94076.00;5065533;28;20224;-75
2022/02/26 03:13:25;;;;;;;42.05;17.98;;;;;;;1.64;55.23;94087.09;5065440;28;20051;-75
2022/02/26 03:15:52;;;;;;;50.53;18.70;;;;;;;1.54;55.00;94090.41;5065253;28;20024;-75
2022/02/26 03:18:20;;;;;;;48.22;19.08;;;;;;;1.36;55.49;94096.03;5065400;28;20128;-76
2022/02/26 03:20:45;;;;;;;44.88;19.40;;;;;;;1.33;55.81;94097.34;5065555;28;20242;-76
2022/02/26 03:23:11;;;;;;;42.85;15.00;;;;;;;1.24;56.98;94101.44;5065547;28;20047;-75
2022/02/26 03:25:37;;;;;;;23.30;10.93;;;;;;;1.27;60.05;94100.19;5065252;28;20025;-75
2022/02/26 03:28:03;;;;;;;27.40;11.15;;;;;;;1.56;60.28;94098.84;5065483;28;20035;-75
2022/02/26 03:30:28;;;;;;;23.17;10.93;;;;;;;1.74;59.77;94100.28;5064047;28;20033;-75
2022/02/26 03:32:54;;;;;;;23.13;10.18;;;;;;;1.87;59.65;94106.16;5065190;28;20024;-76
2022/02/26 03:35:19;;;;;;;26.15;9.27;;;;;;;2.01;59.47;94112.56;5064039;28;20033;-76
2022/02/26 03:37:45;;;;;;;21.00;10.57;;;;;;;2.17;59.42;94109.00;5065093;28;20191;-76
2022/02/26 03:40:11;;;;;;;25.83;12.32;;;;;;;2.24;59.57;94108.78;5064729;28;20032;-76
2022/02/26 03:42:38;;;;;;;23.85;11.57;;;;;;;2.30;59.93;94120.91;5065064;28;20052;-76
2022/02/26 03:45:05;;;;;;;21.05;10.40;;;;;;;2.38;59.50;94119.63;5064609;28;20046;-77
2022/02/26 03:47:30;;;;;;;26.77;11.50;;;;;;;2.50;59.48;94117.59;5065150;28;20020;-77
2022/02/26 03:49:56;;;;;;;22.13;11.98;;;;;;;2.54;59.29;94126.53;5064866;28;20031;-76
2022/02/26 03:52:22;;;;;;;25.23;11.18;;;;;;;2.59;58.90;94105.53;5064983;28;20219;-76
2022/02/26 03:54:48;;;;;;;30.75;12.18;;;;;;;2.60;58.85;94119.47;5064582;28;20131;-77
2022/02/26 03:57:14;;;;;;;25.92;10.82;;;;;;;2.66;58.71;94120.28;5064811;28;20021;-77
2022/02/26 03:59:39;;;;;;;25.23;11.52;;;;;;;2.72;58.55;94117.41;5064869;28;20055;-77
2022/02/26 04:02:05;;;;;;;20.85;10.98;;;;;;;2.74;58.44;94117.16;5064711;28;20028;-77
2022/02/26 04:04:30;;;;;;;22.60;10.45;;;;;;;2.72;58.31;94109.53;5064926;28;20041;-77
2022/02/26 04:06:56;;;;;;;24.73;11.85;;;;;;;2.73;58.67;94126.13;5064592;28;20079;-77
2022/02/26 04:09:23;;;;;;;28.30;9.82;;;;;;;2.74;58.94;94110.06;5064366;28;20029;-77
2022/02/26 04:11:48;;;;;;;30.10;12.48;;;;;;;2.77;58.80;94108.78;5064450;28;20041;-77
2022/02/26 04:14:15;;;;;;;19.63;11.02;;;;;;;2.76;58.93;94120.34;5063322;28;20028;-77
2022/02/26 04:16:40;;;;;;;29.80;12.25;;;;;;;2.76;59.27;94112.44;5064488;28;20082;-78
2022/02/26 04:19:06;;;;;;;21.50;10.63;;;;;;;2.75;59.51;94129.28;5063435;28;20020;-78
2022/02/26 04:21:32;;;;;;;27.48;11.02;;;;;;;2.75;59.40;94135.34;5064514;28;20058;-78
2022/02/26 04:23:58;;;;;;;22.77;11.45;;;;;;;2.79;59.45;94130.38;5064197;28;20044;-78
2022/02/26 04:26:24;;;;;;;28.92;11.25;;;;;;;2.75;59.55;94132.72;5064312;28;20032;-78
2022/02/26 04:28:50;;;;;;;23.25;12.43;;;;;;;2.75;59.77;94145.09;5064302;28;20096;-77
2022/02/26 04:31:16;;;;;;;23.83;11.60;;;;;;;2.72;59.81;94140.31;5063999;28;20031;-77
2022/02/26 04:33:42;;;;;;;28.20;11.60;;;;;;;2.67;59.73;94133.22;5064052;28;20025;-76
2022/02/26 04:36:08;;;;;;;24.42;11.82;;;;;;;2.75;59.35;94137.19;5064053;28;20024;-77
2022/02/26 04:38:35;;;;;;;22.10;11.77;;;;;;;2.82;59.23;94137.72;5064145;28;20017;-76
2022/02/26 04:41:01;;;;;;;19.67;11.05;;;;;;;2.83;58.95;94130.63;5064348;28;20013;-76
2022/02/26 04:43:28;;;;;;;21.77;12.02;;;;;;;2.84;58.92;94134.84;5062580;28;20055;-75
2022/02/26 04:45:54;;;;;;;23.80;11.90;;;;;;;2.79;58.91;94131.16;5062765;28;20021;-76
2022/02/26 04:48:19;;;;;;;23.13;10.68;;;;;;;2.81;59.17;94123.00;5063938;28;20016;-76
2022/02/26 04:50:45;;;;;;;23.70;12.15;;;;;;;2.80;58.86;94124.03;5063532;28;20043;-77
2022/02/26 04:53:11;;;;;;;24.00;11.27;;;;;;;2.83;58.82;94141.16;5063913;28;20023;-78
2022/02/26 04:55:37;;;;;;;24.23;11.45;;;;;;;2.84;58.82;94155.91;5063413;28;20020;-78
2022/02/26 04:58:02;;;;;;;25.80;11.90;;;;;;;2.84;58.65;94150.66;5063527;28;20032;-78
2022/02/26 05:00:28;;;;;;;23.08;11.75;;;;;;;2.82;58.83;94145.63;5063614;28;20020;-78
2022/02/26 05:02:53;;;;;;;22.33;11.07;;;;;;;2.87;58.64;94158.03;5063695;28;20206;-78
2022/02/26 05:05:19;;;;;;;24.60;10.90;;;;;;;2.91;58.59;94153.81;5063658;28;20021;-78
2022/02/26 05:07:44;;;;;;;25.95;12.05;;;;;;;2.83;58.91;94157.75;5063660;28;20319;-78
2022/02/26 05:10:10;;;;;;;31.98;12.40;;;;;;;2.82;59.08;94166.69;5063369;28;20044;-78
2022/02/26 05:12:36;;;;;;;26.48;12.90;;;;;;;2.86;59.46;94174.88;5063466;28;20220;-78
2022/02/26 05:15:02;;;;;;;24.08;10.30;;;;;;;2.83;59.15;94178.81;5063811;28;20039;-78
2022/02/26 05:17:27;;;;;;;28.77;11.90;;;;;;;2.89;59.19;94182.25;5063336;28;20025;-76
2022/02/26 05:19:53;;;;;;;28.58;12.13;;;;;;;2.90;59.06;94178.59;5063128;28;20031;-76
2022/02/26 05:22:19;;;;;;;25.20;11.55;;;;;;;2.77;59.52;94185.91;5063042;28;20028;-78
2022/02/26 05:24:44;;;;;;;19.80;10.45;;;;;;;2.79;59.55;94201.44;5063285;28;20013;-78
2022/02/26 05:27:10;;;;;;;27.15;11.68;;;;;;;2.75;59.46;94190.63;5063147;28;20047;-75
2022/02/26 05:29:36;;;;;;;19.98;11.00;;;;;;;2.78;59.64;94200.63;5063397;28;20021;-76
2022/02/26 05:32:01;;;;;;;23.60;11.55;;;;;;;2.71;59.70;94209.81;5063045;28;20021;-76
2022/02/26 05:34:27;;;;;;;24.10;10.82;;;;;;;2.66;59.81;94226.34;5062727;28;20134;-75
2022/02/26 05:36:52;;;;;;;25.52;11.65;;;;;;;2.70;59.75;94219.53;5063015;28;20066;-77
2022/02/26 05:39:18;;;;;;;20.00;10.63;;;;;;;2.68;59.92;94223.47;5062988;28;20029;-77
2022/02/26 05:41:43;;;;;;;25.20;12.38;;;;;;;2.64;60.09;94217.91;5062961;28;20016;-75
2022/02/26 05:44:09;;;;;;;22.15;11.27;;;;;;;2.71;59.70;94221.13;5062920;28;20087;-75
2022/02/26 05:46:34;;;;;;;23.95;11.25;;;;;;;2.71;59.71;94226.41;5062814;28;20029;-75
2022/02/26 05:49:00;;;;;;;22.30;11.85;;;;;;;2.74;59.87;94227.72;5061442;28;20024;-76
2022/02/26 05:51:26;;;;;;;19.15;10.70;;;;;;;2.71;59.73;94223.78;5062454;28;20036;-76
2022/02/26 05:53:51;;;;;;;24.60;10.93;;;;;;;2.74;59.90;94225.88;5062661;28;20056;-75
2022/02/26 05:56:17;;;;;;;19.70;10.13;;;;;;;2.69;59.58;94230.34;5062439;28;20021;-76
2022/02/26 05:58:42;;;;;;;20.98;10.85;;;;;;;2.70;59.73;94222.16;5061327;28;20100;-76
2022/02/26 06:01:08;;;;;;;22.83;11.20;;;;;;;2.71;59.72;94229.03;5062442;28;20123;-75
2022/02/26 06:03:33;;;;;;;20.48;11.70;;;;;;;2.83;59.43;94228.84;5062586;28;20226;-75
2022/02/26 06:05:59;;;;;;;30.98;11.85;;;;;;;2.85;59.47;94233.84;5062561;28;20223;-75
2022/02/26 06:08:25;;;;;;;22.45;11.95;;;;;;;2.86;59.62;94245.97;5062322;28;20027;-75
2022/02/26 06:10:50;;;;;;;30.15;11.35;;;;;;;2.94;58.84;94248.13;5062411;28;20048;-74
2022/02/26 06:13:16;;;;;;;24.80;11.48;;;;;;;3.02;58.96;94239.72;5062148;28;20056;-75
2022/02/26 06:15:41;;;;;;;25.23;11.93;;;;;;;3.01;58.93;94240.75;5062221;28;20039;-74
2022/02/26 06:18:06;;;;;;;22.50;11.38;;;;;;;3.06;59.08;94240.00;5062435;28;20044;-75
2022/02/26 06:20:32;;;;;;;24.48;11.23;;;;;;;3.16;58.69;94245.31;5062054;28;20279;-74
2022/02/26 06:22:57;;;;;;;30.67;11.93;;;;;;;3.26;58.26;94240.09;5061906;28;20081;-76
2022/02/26 06:25:23;;;;;;;28.38;11.77;;;;;;;3.35;57.94;94243.81;5062241;28;20087;-76
2022/02/26 06:27:49;;;;;;;29.67;11.82;;;;;;;3.38;57.98;94240.66;5062454;28;20028;-76
2022/02/26 06:30:15;;;;;;;21.95;12.35;;;;;;;3.41;57.78;94240.13;5062530;28;20029;-80
2022/02/26 06:32:41;;;;;;;22.70;11.10;;;;;;;3.30;58.21;94248.28;5062543;28;20048;-80
2022/02/26 06:35:09;;;;;;;25.42;10.45;;;;;;;3.20;58.26;94252.44;5062335;28;20070;-79
2022/02/26 06:37:35;;;;;;;30.83;11.05;;;;;;;3.31;58.18;94258.56;5062430;28;20028;-76
2022/02/26 06:40:01;;;;;;;23.92;11.80;;;;;;;3.33;57.56;94260.94;5062122;28;20048;-76
2022/02/26 06:42:26;;;;;;;20.90;10.63;;;;;;;3.30;57.90;94253.56;5061002;28;20025;-75
2022/02/26 06:44:52;;;;;;;21.70;10.68;;;;;;;3.22;57.86;94255.63;5061921;28;20040;-75
2022/02/26 06:47:18;;;;;;;39.28;11.82;;;;;;;3.24;58.27;94263.28;5062167;28;20100;-76
2022/02/26 06:49:44;;;;;;;31.23;11.02;;;;;;;3.32;57.88;94264.63;5061975;28;20219;-78
2022/02/26 06:52:10;;;;;;;20.02;10.93;;;;;;;3.34;57.59;94262.53;5060890;28;20029;-76
2022/02/26 06:54:36;;;;;;;31.40;10.82;;;;;;;3.39;57.03;94262.53;5062212;28;20373;-78
2022/02/26 06:57:05;;;;;;;34.38;11.20;;;;;;;3.39;57.58;94260.69;5061798;28;20052;-76
2022/02/26 06:59:31;;;;;;;20.80;11.63;;;;;;;3.42;57.66;94267.31;5062007;28;20131;-76
2022/02/26 07:01:56;;;;;;;22.25;11.57;;;;;;;3.50;57.65;94272.09;5061962;28;20044;-77
2022/02/26 07:04:23;;;;;;;22.88;11.20;;;;;;;3.52;57.32;94266.53;5061837;28;20025;-77
2022/02/26 07:06:48;;;;;;;27.42;12.27;;;;;;;3.61;57.10;94270.25;5061974;28;20025;-76
2022/02/26 07:09:21;;;;;;;26.90;12.45;;;;;;;3.61;56.91;94267.63;5060758;28;20024;-73
2022/02/26 07:11:48;;;;;;;29.10;12.45;;;;;;;3.65;56.80;94271.34;5061812;28;20053;-75
2022/02/26 07:14:13;;;;;;;38.42;11.93;;;;;;;3.72;56.74;94274.50;5061385;28;20087;-76
2022/02/26 07:16:40;;;;;;;23.50;11.68;;;;;;;3.75;56.66;94268.72;5062043;28;20037;-77
2022/02/26 07:19:06;;;;;;;28.63;12.23;;;;;;;3.76;56.52;94254.47;5061964;28;20017;-76
2022/02/26 07:21:33;;;;;;;28.83;13.35;;;;;;;3.83;56.92;94264.78;5065014;28;20204;-77
2022/02/26 07:23:59;;;;;;;23.42;12.07;;;;;;;3.95;56.24;94273.25;5064945;28;20108;-79
2022/02/26 07:26:28;;;;;;;26.00;12.20;;;;;;;4.11;56.42;94268.81;5065580;28;20028;-79
2022/02/26 07:28:54;;;;;;;29.80;11.95;;;;;;;4.32;58.50;94274.09;5065302;28;20025;-80
2022/02/26 07:31:19;;;;;;;26.05;11.93;;;;;;;4.42;57.43;94266.19;5065216;28;20025;-81
2022/02/26 07:33:45;;;;;;;27.90;12.27;;;;;;;4.56;56.90;94261.94;5065439;28;20139;-79
2022/02/26 07:36:11;;;;;;;29.08;13.25;;;;;;;4.65;54.94;94266.69;5065277;28;20020;-75
2022/02/26 07:38:36;;;;;;;26.95;12.50;;;;;;;4.65;54.27;94261.41;5063864;28;20029;-72
2022/02/26 07:41:03;;;;;;;22.52;11.75;;;;;;;4.58;54.26;94262.47;5064732;28;20097;-72
2022/02/26 07:43:28;;;;;;;22.33;12.40;;;;;;;4.54;54.31;94268.53;5064575;28;20093;-73
2022/02/26 07:45:54;;;;;;;22.27;10.52;;;;;;;4.50;54.54;94265.66;5064881;28;20025;-73
2022/02/26 07:48:20;;;;;;;29.08;11.55;;;;;;;4.47;54.19;94263.53;5064659;28;20024;-74
2022/02/26 07:50:45;;;;;;;28.80;11.15;;;;;;;4.41;54.75;94265.38;5064447;28;20045;-72
2022/02/26 07:53:11;;;;;;;29.65;12.07;;;;;;;4.48;54.69;94267.75;5064402;28;20027;-73
2022/02/26 07:55:37;;;;;;;31.45;12.15;;;;;;;4.48;53.96;94267.75;5064545;28;20068;-72
2022/02/26 07:58:03;;;;;;;24.10;10.77;;;;;;;4.30;54.39;94263.78;5064498;28;20108;-73
2022/02/26 08:00:30;;;;;;;29.13;11.45;;;;;;;4.33;54.45;94267.75;5064253;28;20561;-73
2022/02/26 08:02:56;;;;;;;21.33;10.52;;;;;;;4.35;54.61;94263.00;5064240;28;20313;-73
2022/02/26 08:05:21;;;;;;;26.42;11.00;;;;;;;4.31;55.04;94269.84;5064150;28;20215;-73
2022/02/26 08:07:47;;;;;;;19.35;10.85;;;;;;;4.39;54.32;94266.69;5064207;28;20021;-73
2022/02/26 08:10:13;;;;;;;29.67;11.38;;;;;;;4.40;54.65;94265.66;5064180;28;20063;-73
2022/02/26 08:12:40;;;;;;;29.67;11.50;;;;;;;4.49;54.14;94271.97;5064245;28;20037;-73
2022/02/26 08:15:06;;;;;;;28.85;12.90;;;;;;;4.51;53.72;94256.66;5064525;28;20088;-74
2022/02/26 08:17:32;;;;;;;23.70;11.57;;;;;;;4.57;53.41;94252.97;5064295;28;20024;-75
2022/02/26 08:19:57;;;;;;;22.45;10.73;;;;;;;4.60;53.96;94257.72;5063884;28;20027;-74
2022/02/26 08:22:23;;;;;;;28.45;10.82;;;;;;;4.73;53.70;94250.31;5064022;28;20040;-74
2022/02/26 08:24:49;;;;;;;25.25;12.07;;;;;;;4.75;53.27;94251.63;5064162;28;20158;-74
2022/02/26 08:27:14;;;;;;;28.85;12.02;;;;;;;4.80;52.98;94246.34;5064060;28;20197;-74
2022/02/26 08:29:40;;;;;;;20.98;9.80;;;;;;;4.93;52.57;94250.28;5063802;28;20033;-74
2022/02/26 08:32:06;;;;;;;25.25;11.30;;;;;;;5.01;52.01;94241.81;5062838;28;20040;-74
2022/02/26 08:34:32;;;;;;;27.33;10.38;;;;;;;5.15;52.22;94235.94;5063679;28;20307;-74
2022/02/26 08:36:57;;;;;;;20.83;10.75;;;;;;;5.16;51.25;94235.69;5063840;28;20025;-74
2022/02/26 08:39:24;;;;;;;25.85;10.75;;;;;;;5.21;51.24;94243.59;5063932;28;20222;-74
2022/02/26 08:41:51;;;;;;;29.73;10.70;;;;;;;5.37;51.10;94233.78;5063927;28;20202;-74
2022/02/26 08:44:16;;;;;;;26.42;12.23;;;;;;;5.49;50.61;94230.00;5063517;28;20025;-74
2022/02/26 08:46:42;;;;;;;21.25;10.27;;;;;;;5.53;50.17;94223.91;5063565;28;20115;-74
2022/02/26 08:49:08;;;;;;;22.67;9.55;;;;;;;5.63;51.36;94223.84;5063435;28;20219;-74
2022/02/26 08:51:33;;;;;;;18.33;9.52;;;;;;;5.77;51.26;94220.59;5063505;28;20028;-72
2022/02/26 08:53:59;;;;;;;34.45;11.10;;;;;;;5.92;49.86;94220.53;5063292;28;20101;-74
2022/02/26 08:56:24;;;;;;;18.35;10.30;;;;;;;6.01;47.89;94218.13;5061995;28;20029;-73
2022/02/26 08:58:51;;;;;;;19.35;9.90;;;;;;;6.09;48.31;94212.22;5062110;28;20024;-74
2022/02/26 09:01:17;;;;;;;31.35;10.68;;;;;;;6.29;47.93;94229.00;5063340;28;20017;-73
2022/02/26 09:03:43;;;;;;;20.20;9.63;;;;;;;6.36;47.84;94210.97;5063213;28;20024;-73
2022/02/26 09:06:09;;;;;;;18.45;8.88;;;;;;;6.48;46.63;94207.97;5062795;28;20053;-73
2022/02/26 09:08:38;;;;;;;20.20;9.10;;;;;;;6.60;45.92;94206.50;5061101;28;20342;-73
2022/02/26 09:11:07;;;;;;;23.65;9.63;;;;;;;6.63;46.46;94213.91;5061453;28;20197;-73
2022/02/26 09:13:37;;;;;;;17.88;9.07;;;;;;;6.67;45.73;94208.84;5061375;28;20048;-73
2022/02/26 09:16:04;;;;;;;20.65;9.25;;;;;;;6.82;45.88;94213.22;5062096;28;20036;-73
2022/02/26 09:18:29;;;;;;;21.58;9.27;;;;;;;7.00;44.94;94198.44;5062772;28;20024;-73
2022/02/26 09:20:56;;;;;;;19.75;9.55;;;;;;;7.10;45.01;94216.88;5063176;28;20116;-74
2022/02/26 09:23:21;;;;;;;18.52;9.35;;;;;;;7.26;44.85;94206.09;5063036;28;20051;-73
2022/02/26 09:25:47;;;;;;;26.05;10.70;;;;;;;7.35;44.35;94215.81;5063119;28;20037;-73
2022/02/26 09:28:12;;;;;;;27.52;11.95;;;;;;;7.50;44.21;94214.81;5062625;28;20024;-73
2022/02/26 09:30:38;;;;;;;25.17;11.02;;;;;;;7.50;44.55;94212.16;5062825;28;20070;-73
2022/02/26 09:33:04;;;;;;;23.73;11.75;;;;;;;7.59;44.57;94214.97;5062804;28;20031;-73
2022/02/26 09:35:30;;;;;;;21.20;9.88;;;;;;;7.72;44.39;94201.00;5062796;28;20033;-73
2022/02/26 09:37:55;;;;;;;22.17;9.95;;;;;;;7.88;43.65;94206.13;5062709;28;20028;-73
2022/02/26 09:40:21;;;;;;;16.75;9.40;;;;;;;7.96;43.51;94202.81;5062634;28;20029;-73
2022/02/26 09:42:47;;;;;;;24.13;9.98;;;;;;;8.12;43.32;94211.34;5062243;28;20032;-73
2022/02/26 09:45:13;;;;;;;24.10;9.57;;;;;;;8.26;42.49;94208.75;5062586;28;20025;-73
2022/02/26 09:47:38;;;;;;;18.83;9.60;;;;;;;8.35;42.36;94199.06;5062586;28;20040;-73
2022/02/26 09:50:06;;;;;;;19.38;9.57;;;;;;;8.43;41.71;94207.16;5062674;28;20024;-73
2022/02/26 09:52:38;;;;;;;18.70;9.38;;;;;;;8.43;41.47;94204.50;5061505;28;20043;-73
2022/02/26 09:55:04;;;;;;;17.33;8.30;;;;;;;8.47;40.81;94195.94;5062536;28;20025;-73
2022/02/26 09:57:30;;;;;;;19.67;10.10;;;;;;;8.48;41.10;94203.63;5062438;28;20635;-73
2022/02/26 09:59:55;;;;;;;35.10;10.40;;;;;;;8.47;41.17;94204.72;5062384;28;20029;-73
2022/02/26 10:02:33;;;;;;;21.80;9.65;;;;;;;8.34;41.15;94203.56;5062523;28;20313;-73
2022/02/26 10:05:00;;;;;;;22.90;9.82;;;;;;;8.34;41.26;94200.13;5062474;28;20028;-73
2022/02/26 10:07:27;;;;;;;26.10;11.40;;;;;;;8.39;40.96;94198.16;5062525;28;20027;-74
2022/02/26 10:09:54;;;;;;;25.77;10.73;;;;;;;8.50;41.76;94190.84;5062340;28;20087;-74
2022/02/26 10:12:27;;;;;;;20.70;10.27;;;;;;;8.59;42.12;94194.41;5062261;28;20033;-77
2022/02/26 10:14:57;;;;;;;25.13;9.27;;;;;;;8.74;41.17;94187.25;5061046;28;20017;-76
2022/02/26 10:17:26;;;;;;;21.67;9.77;;;;;;;8.90;40.53;94179.81;5062146;28;20013;-74
2022/02/26 10:20:11;;;;;;;20.23;9.38;;;;;;;8.99;39.22;94181.47;5062133;28;20036;-74
2022/02/26 10:22:43;;;;;;;22.05;9.63;;;;;;;9.00;39.03;94177.75;5062467;28;20025;-74
2022/02/26 10:25:14;;;;;;;21.83;10.73;;;;;;;8.88;39.36;94180.09;5062445;28;20029;-75
2022/02/26 10:27:45;;;;;;;24.08;9.20;;;;;;;8.93;39.13;94172.00;5062306;28;20361;-75
2022/02/26 10:30:21;;;;;;;20.90;9.20;;;;;;;8.95;39.04;94175.16;5062188;28;20033;-74
2022/02/26 10:33:11;;;;;;;29.02;11.05;;;;;;;8.85;39.60;94175.34;5061022;28;20028;-75
2022/02/26 10:35:48;;;;;;;19.83;10.40;;;;;;;8.89;40.05;94175.56;5061978;28;20040;-75
2022/02/26 10:38:13;;;;;;;23.98;10.63;;;;;;;8.93;40.50;94160.59;5061647;28;20419;-75
2022/02/26 10:40:48;;;;;;;32.40;12.63;;;;;;;9.16;39.93;94161.47;5061341;28;20025;-75
2022/02/26 10:43:14;;;;;;;24.23;10.73;;;;;;;9.37;39.40;94159.22;5061886;28;20131;-75
2022/02/26 10:45:39;;;;;;;23.58;10.75;;;;;;;9.51;39.10;94159.19;5062204;28;20036;-75
2022/02/26 10:48:05;;;;;;;24.90;11.38;;;;;;;9.64;39.51;94163.69;5062107;28;20033;-75
2022/02/26 10:50:34;;;;;;;23.90;12.00;;;;;;;9.75;37.87;94159.75;5061915;28;20032;-75
2022/02/26 10:53:04;;;;;;;19.65;10.55;;;;;;;9.91;37.56;94151.41;5061895;28;20048;-75
2022/02/26 10:55:50;;;;;;;31.25;10.05;;;;;;;10.04;37.51;94146.03;5064414;28;20025;-75
2022/02/26 10:58:29;;;;;;;18.55;9.90;;;;;;;10.20;37.24;94149.13;5065030;28;20047;-76
2022/02/26 11:01:05;;;;;;;27.45;9.15;;;;;;;10.34;36.10;94148.28;5064113;28;20017;-75
2022/02/26 11:03:32;;;;;;;20.73;8.13;;;;;;;10.36;34.73;94148.75;5063761;28;20194;-75
2022/02/26 11:05:58;;;;;;;20.33;10.38;;;;;;;10.40;34.48;94136.41;5064065;28;20095;-76
2022/02/26 11:08:24;;;;;;;20.90;9.43;;;;;;;10.48;35.41;94133.00;5064216;28;20025;-75
2022/02/26 11:10:52;;;;;;;32.83;12.63;;;;;;;10.63;35.55;94135.28;5063890;28;20215;-75
2022/02/26 11:13:20;;;;;;;22.48;10.13;;;;;;;10.76;35.14;94132.84;5064211;28;20045;-75
2022/02/26 11:15:48;;;;;;;18.25;9.02;;;;;;;10.84;34.43;94138.19;5065447;28;20091;-75
2022/02/26 11:18:18;;;;;;;19.55;8.60;;;;;;;10.96;33.99;94131.53;5065500;28;20017;-75
2022/02/26 11:20:44;;;;;;;26.35;8.95;;;;;;;11.04;33.79;94123.53;5065358;28;20032;-75
2022/02/26 11:23:11;;;;;;;23.65;9.90;;;;;;;11.15;33.66;94123.25;5065483;28;20021;-75